Time;durP1;ratioP1;P1;durP2;ratioP2;P2;SDS_P1;SDS_P2;PMS_P1;PMS_P2;Temp;Humidity;BMP_temperature;BMP_pressure;BME280_temperature;BME280_humidity;BME280_pressure;Samples;Min_cycle;Max_cycle;Signal;HPM_P1;HPM_P2
2022/08/27 00:02:16;;;;;;;2.33;2.22;;;18.90;99.90;;;19.18;77.49;101699.22;4824766;29;20107;-74
2022/08/27 00:04:46;;;;;;;2.80;2.70;;;18.80;99.90;;;18.93;76.94;101682.91;4824815;29;20493;-74
2022/08/27 00:07:14;;;;;;;2.10;2.00;;;18.70;99.90;;;18.98;77.16;101698.00;4824772;29;20327;-74
2022/08/27 00:09:43;;;;;;;2.58;2.47;;;18.70;99.90;;;19.02;77.14;101697.88;4824661;29;20050;-74
2022/08/27 00:12:13;;;;;;;2.40;2.30;;;18.60;99.90;;;18.82;77.23;101694.81;4824425;29;20052;-74
2022/08/27 00:14:41;;;;;;;2.25;2.15;;;18.50;99.90;;;18.90;77.51;101696.41;4824416;29;20078;-75
2022/08/27 00:17:14;;;;;;;2.60;2.50;;;18.60;99.90;;;18.88;77.93;101698.25;4824895;29;20050;-74
2022/08/27 00:19:43;;;;;;;2.20;2.10;;;18.50;99.90;;;18.82;78.07;101697.50;4824395;29;20053;-75
2022/08/27 00:22:12;;;;;;;2.45;2.35;;;18.40;99.90;;;18.70;77.79;101692.44;4824302;29;20213;-75
2022/08/27 00:24:40;;;;;;;2.50;2.40;;;18.40;99.90;;;18.69;77.28;101691.56;4824291;29;20111;-75
2022/08/27 00:27:16;;;;;;;2.30;2.20;;;18.30;99.90;;;18.60;77.20;101686.41;4824313;29;20504;-76
2022/08/27 00:29:45;;;;;;;2.40;2.30;;;18.30;99.90;;;18.60;77.11;101685.56;4824561;29;20142;-75
2022/08/27 00:32:16;;;;;;;2.20;2.10;;;18.30;99.90;;;18.57;76.90;101686.50;4824199;29;20054;-75
2022/08/27 00:34:45;;;;;;;2.05;1.95;;;18.20;99.90;;;18.36;77.20;101646.78;4824240;29;20121;-75
2022/08/27 00:37:13;;;;;;;2.10;2.00;;;18.20;99.90;;;18.55;77.54;101682.09;4824348;29;20056;-75
2022/08/27 00:39:41;;;;;;;2.17;2.08;;;18.20;99.90;;;18.58;77.57;101682.88;4824107;29;20050;-75
2022/08/27 00:42:10;;;;;;;2.60;2.50;;;18.20;99.90;;;18.48;77.25;101694.78;4823977;29;20107;-75
2022/08/27 00:44:38;;;;;;;2.70;2.60;;;18.10;99.90;;;18.14;76.86;101636.63;4824293;29;20081;-75
2022/08/27 00:47:16;;;;;;;2.03;1.92;;;18.10;99.90;;;18.26;76.58;101647.03;4824057;29;20137;-75
2022/08/27 00:49:51;;;;;;;2.78;2.67;;;18.20;99.90;;;18.44;76.63;101695.75;4824119;29;20493;-75
2022/08/27 00:52:24;;;;;;;2.60;2.50;;;18.10;99.90;;;18.40;76.70;101691.34;4824031;29;20718;-75
2022/08/27 00:54:58;;;;;;;2.80;2.70;;;18.10;99.90;;;18.37;76.97;101690.56;4824042;29;20046;-74
2022/08/27 00:57:27;;;;;;;2.33;2.22;;;18.00;99.90;;;18.31;76.96;101698.72;4824472;29;20106;-75
2022/08/27 00:59:56;;;;;;;2.53;2.42;;;18.00;99.90;;;18.27;77.63;101689.88;4827971;29;20053;-74
2022/08/27 01:02:29;;;;;;;2.40;2.30;;;17.90;99.90;;;18.20;77.71;101688.25;4827526;29;20050;-75
2022/08/27 01:05:03;;;;;;;2.35;2.25;;;17.90;99.90;;;17.28;77.71;101547.53;4827601;29;20059;-75
2022/08/27 01:07:36;;;;;;;2.58;2.47;;;17.80;99.90;;;18.22;77.88;101702.47;4827291;29;20144;-75
2022/08/27 01:10:11;;;;;;;2.50;2.40;;;17.80;99.90;;;18.09;77.84;101663.50;4827304;29;20552;-74
2022/08/27 01:12:40;;;;;;;2.72;2.63;;;17.90;99.90;;;18.22;77.86;101697.13;4826247;29;20482;-74
2022/08/27 01:15:14;;;;;;;2.70;2.60;;;17.90;99.90;;;18.20;78.16;101700.75;4827152;29;20051;-75
2022/08/27 01:17:49;;;;;;;2.65;2.55;;;17.90;99.90;;;18.23;78.75;101696.22;4827374;29;20413;-75
2022/08/27 01:20:20;;;;;;;;;;;17.90;99.90;;;18.26;78.65;101701.50;4827571;29;20125;-75
2022/08/27 01:23:00;;;;;;;2.55;2.45;;;17.90;99.90;;;18.25;78.19;101694.38;4826963;29;20436;-75
2022/08/27 01:25:30;;;;;;;2.30;2.20;;;17.90;99.90;;;18.16;77.45;101691.91;4827065;29;20081;-74
2022/08/27 01:28:02;;;;;;;2.30;2.20;;;17.90;99.90;;;18.23;77.51;101695.34;4827039;29;20070;-75
2022/08/27 01:30:31;;;;;;;2.60;2.50;;;17.90;99.90;;;18.24;77.65;101692.63;4827113;29;20103;-74
2022/08/27 01:33:00;;;;;;;2.40;2.30;;;17.90;99.90;;;18.29;77.87;101689.84;4825916;29;20058;-75
2022/08/27 01:35:28;;;;;;;2.38;2.28;;;17.90;99.90;;;18.24;77.76;101691.72;4825819;29;20050;-75
2022/08/27 01:37:56;;;;;;;2.33;2.22;;;17.90;99.90;;;18.20;77.91;101682.00;4826725;29;20043;-74
2022/08/27 01:40:26;;;;;;;2.20;2.10;;;17.80;99.90;;;18.11;77.89;101684.88;4827276;29;20042;-75
2022/08/27 01:42:57;;;;;;;2.40;2.30;;;17.80;99.90;;;18.18;78.37;101692.75;4826570;29;20038;-75
2022/08/27 01:45:29;;;;;;;2.20;2.10;;;17.80;99.90;;;18.04;79.17;101684.13;4826696;29;20076;-75
2022/08/27 01:47:58;;;;;;;2.13;2.03;;;17.70;99.90;;;18.02;79.23;101686.84;4826677;29;20454;-75
2022/08/27 01:50:31;;;;;;;2.42;2.33;;;17.70;99.90;;;17.94;79.49;101687.94;4826600;29;20408;-75
2022/08/27 01:53:06;;;;;;;2.50;2.40;;;17.60;99.90;;;17.88;79.90;101693.44;4826813;29;20119;-75
2022/08/27 01:55:35;;;;;;;2.45;2.35;;;17.50;99.90;;;17.77;80.32;101696.31;4826536;29;20413;-74
2022/08/27 01:58:05;;;;;;;2.33;2.22;;;17.50;99.90;;;17.92;80.27;101689.78;4826680;29;20046;-75
2022/08/27 02:00:37;;;;;;;2.40;2.30;;;17.50;99.90;;;17.89;80.29;101687.16;4826511;29;20463;-75
2022/08/27 02:03:07;;;;;;;2.42;2.33;;;17.60;99.90;;;17.91;80.08;101693.34;4826205;29;20095;-75
2022/08/27 02:05:37;;;;;;;2.45;2.35;;;17.60;99.90;;;17.73;79.62;101667.00;4826633;29;20077;-75
2022/08/27 02:08:14;;;;;;;2.40;2.30;;;17.50;99.90;;;17.84;79.41;101687.25;4826169;29;20046;-75
2022/08/27 02:10:46;;;;;;;2.40;2.30;;;17.50;99.90;;;17.84;79.24;101681.03;4826257;29;20046;-75
2022/08/27 02:13:17;;;;;;;2.10;2.00;;;17.50;99.90;;;17.99;79.96;101676.22;4826219;29;20050;-75
2022/08/27 02:15:45;;;;;;;2.50;2.40;;;17.60;99.90;;;17.95;79.64;101678.97;4826818;29;20093;-75
2022/08/27 02:18:14;;;;;;;2.33;2.22;;;17.60;99.90;;;17.99;79.35;101669.97;4825160;29;20477;-73
2022/08/27 02:20:45;;;;;;;2.30;2.20;;;17.60;99.90;;;18.03;79.67;101671.66;4826030;29;20089;-75
2022/08/27 02:23:14;;;;;;;2.40;2.30;;;17.70;99.90;;;17.94;78.85;101677.25;4825642;29;20144;-75
2022/08/27 02:25:42;;;;;;;2.30;2.20;;;17.60;99.90;;;17.94;78.90;101675.41;4825346;29;20050;-75
2022/08/27 02:28:11;;;;;;;2.60;2.50;;;17.50;99.90;;;18.08;79.86;101679.63;4825328;29;20102;-74
2022/08/27 02:30:41;;;;;;;2.20;2.10;;;17.70;99.90;;;18.08;79.62;101676.94;4825305;29;20046;-75
2022/08/27 02:33:09;;;;;;;2.67;2.58;;;17.70;99.90;;;18.06;79.15;101670.72;4825461;29;20063;-75
2022/08/27 02:35:39;;;;;;;2.42;2.33;;;17.70;99.90;;;17.94;79.56;101650.47;4824159;29;20556;-74
2022/08/27 02:38:08;;;;;;;2.00;1.90;;;17.70;99.90;;;18.09;79.73;101668.84;4825161;29;20057;-74
2022/08/27 02:40:37;;;;;;;2.30;2.20;;;17.70;99.90;;;18.02;79.90;101665.44;4825157;29;20057;-73
2022/08/27 02:43:05;;;;;;;2.42;2.33;;;17.70;99.90;;;17.99;80.17;101660.16;4825289;29;20042;-75
2022/08/27 02:45:35;;;;;;;2.60;2.50;;;17.60;99.90;;;18.01;80.18;101660.13;4825590;29;20068;-74
2022/08/27 02:48:06;;;;;;;2.65;2.55;;;17.70;99.90;;;17.93;79.98;101659.41;4825280;29;20070;-74
2022/08/27 02:50:36;;;;;;;2.20;2.10;;;17.60;99.90;;;18.00;80.08;101658.38;4823997;29;20530;-74
2022/08/27 02:53:06;;;;;;;2.55;2.45;;;17.60;99.90;;;17.97;80.69;101661.97;4824886;29;20082;-74
2022/08/27 02:55:35;;;;;;;2.33;2.22;;;17.60;99.90;;;18.00;81.08;101658.38;4825227;29;20497;-75
2022/08/27 02:58:04;;;;;;;2.30;2.20;;;17.60;99.90;;;17.88;81.35;101648.81;4825063;29;20103;-74
2022/08/27 03:00:33;;;;;;;2.88;2.78;;;17.60;99.90;;;17.82;81.34;101651.63;4824877;29;20050;-73
2022/08/27 03:03:03;;;;;;;2.72;2.63;;;17.50;99.90;;;17.84;81.14;101652.47;4824431;29;20050;-75
2022/08/27 03:05:32;;;;;;;2.25;2.15;;;17.50;99.90;;;17.83;80.91;101648.00;4824073;29;20050;-74
2022/08/27 03:08:02;;;;;;;2.20;2.10;;;17.50;99.90;;;17.72;80.23;101650.03;4824010;29;20046;-75
2022/08/27 03:10:30;;;;;;;2.45;2.35;;;17.40;99.90;;;17.73;80.03;101665.16;4824152;29;20103;-74
2022/08/27 03:12:59;;;;;;;2.40;2.30;;;17.40;99.90;;;17.71;79.70;101652.75;4824198;29;20042;-74
2022/08/27 03:15:27;;;;;;;2.50;2.40;;;17.40;99.90;;;17.72;79.93;101644.69;4823821;29;20050;-74
2022/08/27 03:20:46;;;;;;;2.58;2.47;;;17.40;99.90;;;17.69;80.14;101644.75;4823119;29;20171;-75
2022/08/27 03:23:16;;;;;;;2.60;2.50;;;17.40;99.90;;;17.82;80.27;101656.09;4823692;29;20550;-75
2022/08/27 03:25:46;;;;;;;;;;;17.40;99.90;;;17.79;80.84;101648.09;4824079;29;20136;-75
2022/08/27 03:28:16;;;;;;;2.42;2.33;;;17.40;99.90;;;17.81;81.76;101640.91;4823942;29;19925;-74
2022/08/27 03:30:53;;;;;;;2.40;2.30;;;17.40;99.90;;;17.79;81.19;101642.75;4823662;29;20075;-74
2022/08/27 03:33:22;;;;;;;2.13;2.03;;;17.50;99.90;;;17.81;81.03;101647.16;4823589;29;20058;-74
2022/08/27 03:35:52;;;;;;;2.30;2.20;;;17.40;99.90;;;17.75;80.62;101633.91;4823584;29;20046;-75
2022/08/27 03:38:21;;;;;;;2.25;2.15;;;17.50;99.90;;;17.74;80.70;101647.31;4823845;29;20481;-75
2022/08/27 03:40:50;;;;;;;2.28;2.17;;;17.40;99.90;;;17.66;80.84;101649.28;4823597;29;20064;-75
2022/08/27 03:43:20;;;;;;;2.60;2.50;;;17.30;99.90;;;17.72;81.04;101646.47;4823441;29;20081;-75
2022/08/27 03:45:50;;;;;;;2.40;2.30;;;17.40;99.90;;;17.73;81.12;101640.22;4823611;29;20077;-75
2022/08/27 03:48:30;;;;;;;2.35;2.25;;;17.40;99.90;;;17.62;80.93;101650.25;4824053;29;20405;-75
2022/08/27 03:51:06;;;;;;;2.43;2.33;;;17.40;99.90;;;17.52;80.40;101649.56;4823484;29;20047;-75
2022/08/27 03:53:37;;;;;;;2.65;2.55;;;17.30;99.90;;;17.52;79.61;101644.22;4823502;29;20058;-75
2022/08/27 03:56:07;;;;;;;2.78;2.67;;;17.20;99.90;;;17.47;79.10;101648.75;4823479;29;20085;-75
2022/08/27 03:58:36;;;;;;;2.30;2.20;;;17.10;99.90;;;17.44;79.28;101638.09;4823405;29;20046;-75
2022/08/27 04:01:07;;;;;;;2.47;2.38;;;17.10;99.90;;;17.46;79.97;101638.94;4823518;29;20077;-75
2022/08/27 04:03:36;;;;;;;2.30;2.20;;;17.10;99.90;;;17.53;80.33;101642.44;4787442;29;1086147;-74
2022/08/27 04:06:06;;;;;;;2.20;2.10;;;17.10;99.90;;;17.53;80.62;101639.75;4824289;29;20720;-74
2022/08/27 04:08:35;;;;;;;2.33;2.22;;;17.20;99.90;;;17.62;80.50;101643.13;4824603;29;20117;-75
2022/08/27 04:11:06;;;;;;;2.40;2.30;;;17.30;99.90;;;17.46;80.31;101632.75;4823458;29;20057;-75
2022/08/27 04:13:34;;;;;;;2.58;2.47;;;17.20;99.90;;;17.38;79.57;101648.06;4823998;29;20572;-74
2022/08/27 04:16:06;;;;;;;2.40;2.30;;;17.10;99.90;;;17.37;79.35;101646.28;4822885;29;20149;-75
2022/08/27 04:18:34;;;;;;;2.85;2.75;;;17.00;99.90;;;17.46;79.85;101646.13;4824142;29;20143;-74
2022/08/27 04:21:13;;;;;;;2.30;2.20;;;17.10;99.90;;;17.45;79.97;101644.34;4823766;29;20055;-74
2022/08/27 04:23:42;;;;;;;2.70;2.60;;;17.10;99.90;;;17.42;80.13;101645.28;4824047;29;20137;-74
2022/08/27 04:26:13;;;;;;;2.28;2.17;;;17.00;99.90;;;17.47;79.87;101651.44;4823826;29;20125;-74
2022/08/27 04:28:41;;;;;;;2.53;2.42;;;17.10;99.90;;;17.42;79.78;101655.13;4824039;29;20111;-75
2022/08/27 04:31:13;;;;;;;2.53;2.42;;;17.10;99.90;;;17.39;79.53;101648.03;4823953;29;20485;-75
2022/08/27 04:33:44;;;;;;;2.50;2.40;;;17.00;99.90;;;17.35;79.44;101653.44;4823231;29;20050;-75
2022/08/27 04:36:20;;;;;;;2.40;2.30;;;17.00;99.90;;;17.34;79.82;101647.25;4823647;29;20049;-75
2022/08/27 04:38:49;;;;;;;3.25;3.15;;;17.00;99.90;;;17.33;80.18;101647.25;4823908;29;20042;-75
2022/08/27 04:41:21;;;;;;;2.65;2.55;;;17.00;99.90;;;17.37;80.39;101652.53;4823472;29;20038;-74
2022/08/27 04:43:52;;;;;;;2.50;2.40;;;17.00;99.90;;;17.39;80.10;101653.38;4823784;29;20070;-75
2022/08/27 04:46:23;;;;;;;2.30;2.20;;;17.10;99.90;;;17.38;80.13;101659.63;4823850;29;20114;-75
2022/08/27 04:48:52;;;;;;;2.40;2.30;;;17.00;99.90;;;17.44;80.80;101661.31;4823540;29;20129;-73
2022/08/27 04:51:22;;;;;;;2.80;2.70;;;17.10;99.90;;;17.49;81.21;101662.13;4823406;29;20435;-75
2022/08/27 04:53:51;;;;;;;2.53;2.42;;;17.10;99.90;;;17.49;80.49;101656.78;4823947;29;20353;-75
2022/08/27 04:56:22;;;;;;;2.30;2.20;;;17.10;99.90;;;17.52;80.62;101662.06;4822334;29;20051;-75
2022/08/27 04:58:51;;;;;;;;;;;17.20;99.90;;;17.57;81.14;101649.47;4823720;29;20081;-74
2022/08/27 05:01:22;;;;;;;2.10;2.00;;;17.20;99.90;;;17.58;81.53;101657.47;4823285;29;20327;-75
2022/08/27 05:03:51;;;;;;;2.60;2.50;;;17.20;99.90;;;17.44;81.39;101659.50;4823582;29;20054;-75
2022/08/27 05:06:22;;;;;;;2.47;2.38;;;17.10;99.90;;;17.50;81.14;101663.91;4823252;29;20496;-75
2022/08/27 05:08:52;;;;;;;2.50;2.40;;;17.20;99.90;;;17.60;80.92;101666.34;4823493;29;20451;-75
2022/08/27 05:11:22;;;;;;;2.72;2.63;;;17.20;99.90;;;17.53;81.22;101664.72;4823300;29;20125;-74
2022/08/27 05:13:51;;;;;;;2.50;2.40;;;17.20;99.90;;;17.59;81.41;101669.06;4823247;29;20051;-75
2022/08/27 05:16:22;;;;;;;2.63;2.53;;;17.20;99.90;;;17.64;81.43;101667.16;4823386;29;20046;-75
2022/08/27 05:18:52;;;;;;;2.45;2.35;;;17.30;99.90;;;17.46;81.00;101676.41;4822065;29;20138;-74
2022/08/27 05:21:24;;;;;;;2.40;2.30;;;17.20;99.90;;;17.48;81.32;101674.63;4822123;29;20601;-74
2022/08/27 05:23:56;;;;;;;2.50;2.40;;;17.10;99.90;;;17.40;81.31;101675.66;4823078;29;20358;-74
2022/08/27 05:26:24;;;;;;;2.40;2.30;;;17.00;99.90;;;17.07;82.52;101653.97;4823334;29;20074;-74
2022/08/27 05:28:53;;;;;;;2.50;2.40;;;16.80;99.90;;;17.34;82.39;101674.00;4822957;29;20053;-74
2022/08/27 05:31:22;;;;;;;2.30;2.20;;;16.90;99.90;;;17.44;81.96;101678.22;4822951;29;20110;-73
2022/08/27 05:33:50;;;;;;;2.47;2.38;;;17.10;99.90;;;17.46;81.54;101678.22;4821937;29;20058;-74
2022/08/27 05:36:25;;;;;;;2.60;2.50;;;17.10;99.90;;;17.53;80.86;101674.53;4822933;29;20466;-75
2022/08/27 05:38:55;;;;;;;5.65;5.30;;;17.20;99.90;;;17.55;80.38;101675.38;4822957;29;20072;-74
2022/08/27 05:41:26;;;;;;;2.58;2.47;;;17.20;99.90;;;17.63;80.15;101682.34;4822925;29;20418;-75
2022/08/27 05:44:04;;;;;;;2.60;2.50;;;17.30;99.90;;;17.77;80.11;101682.03;4824287;29;20054;-75
2022/08/27 05:46:53;;;;;;;2.78;2.67;;;17.50;99.90;;;17.87;80.52;101680.94;4826269;29;20549;-74
2022/08/27 05:49:21;;;;;;;2.30;2.20;;;17.60;99.90;;;17.88;80.74;101678.25;4824895;29;20401;-74
2022/08/27 05:51:51;;;;;;;2.30;2.20;;;17.60;99.90;;;17.93;81.53;101676.34;4825807;29;20462;-74
2022/08/27 05:54:20;;;;;;;2.73;2.63;;;17.60;99.90;;;18.07;81.36;101676.06;4825834;29;20054;-74
2022/08/27 05:56:49;;;;;;;2.88;2.78;;;17.80;99.90;;;18.20;81.03;101680.22;4826089;29;20468;-73
2022/08/27 06:02:05;;;;;;;3.00;2.90;;;18.00;99.90;;;18.36;80.43;101676.25;4826018;29;20105;-74
2022/08/27 06:04:34;;;;;;;2.63;2.53;;;18.00;99.90;;;18.45;80.43;101684.13;4825894;29;20062;-73
2022/08/27 06:07:05;;;;;;;2.30;2.20;;;18.10;99.90;;;18.36;80.64;101673.59;4824649;29;20147;-75
2022/08/27 06:09:33;;;;;;;2.47;2.38;;;18.20;99.90;;;18.55;81.03;101682.09;4825701;29;20046;-74
2022/08/27 06:12:02;;;;;;;2.38;2.28;;;18.20;99.90;;;18.61;81.58;101684.63;4825562;29;20047;-74
2022/08/27 06:14:30;;;;;;;2.53;2.42;;;18.30;99.90;;;18.78;81.99;101685.09;4825545;29;20054;-74
2022/08/27 06:17:00;;;;;;;2.47;2.38;;;18.40;99.90;;;18.63;82.03;101654.19;4826075;29;20052;-74
2022/08/27 06:19:29;;;;;;;2.78;2.67;;;18.50;99.90;;;19.00;82.10;101691.69;4825604;29;20054;-75
2022/08/27 06:21:59;;;;;;;2.50;2.40;;;18.60;99.90;;;19.12;81.96;101685.13;4825733;29;20055;-74
2022/08/27 06:24:40;;;;;;;2.20;2.10;;;18.80;99.90;;;19.12;81.21;101683.31;4825388;29;20053;-75
2022/08/27 06:27:11;;;;;;;;;;;18.80;99.90;;;19.08;80.73;101686.13;4826385;29;20051;-75
2022/08/27 06:29:41;;;;;;;2.60;2.50;;;18.80;99.90;;;19.11;80.40;101686.03;4825506;29;20355;-75
2022/08/27 06:32:10;;;;;;;2.40;2.30;;;18.80;99.90;;;19.24;80.53;101684.78;4825600;29;20121;-74
2022/08/27 06:34:39;;;;;;;2.47;2.38;;;18.90;99.90;;;19.21;80.84;101698.28;4825264;29;20085;-75
2022/08/27 06:37:07;;;;;;;2.17;2.08;;;18.90;99.90;;;19.43;81.71;101675.34;4824181;29;20046;-74
2022/08/27 06:39:39;;;;;;;2.55;2.45;;;19.00;99.90;;;19.51;82.16;101678.72;4824996;29;20042;-75
2022/08/27 06:42:12;;;;;;;2.47;2.38;;;19.10;99.90;;;19.61;81.86;101677.50;4825124;29;20054;-74
2022/08/27 06:44:41;;;;;;;2.38;2.28;;;19.20;99.90;;;19.81;81.99;101683.19;4825441;29;20408;-75
2022/08/27 06:47:09;;;;;;;2.00;1.90;;;19.40;99.90;;;19.92;81.68;101686.41;4825096;29;20456;-75
2022/08/27 06:49:40;;;;;;;2.50;2.40;;;19.60;99.90;;;19.40;81.30;101578.81;4825067;29;20053;-75
2022/08/27 06:52:15;;;;;;;2.30;2.20;;;19.70;99.90;;;20.09;81.04;101680.56;4825754;29;20121;-77
2022/08/27 06:54:46;;;;;;;2.22;2.13;;;19.80;99.90;;;20.21;80.81;101678.38;4825144;29;20092;-74
2022/08/27 06:57:15;;;;;;;2.10;2.00;;;20.00;99.90;;;20.37;80.13;101687.75;4824138;29;20062;-75
2022/08/27 06:59:45;;;;;;;2.45;2.35;;;20.10;99.90;;;20.40;79.42;101684.09;4825522;29;20520;-75
2022/08/27 07:02:15;;;;;;;2.17;2.07;;;20.20;99.90;;;20.49;79.15;101683.78;4825861;29;20081;-77
2022/08/27 07:04:45;;;;;;;2.40;2.30;;;20.20;99.90;;;20.52;79.35;101686.34;4825302;29;20058;-71
2022/08/27 07:07:15;;;;;;;2.30;2.20;;;20.30;99.90;;;20.57;79.94;101688.00;4825592;29;20046;-71
2022/08/27 07:10:07;;;;;;;2.20;2.10;;;20.30;99.90;;;20.57;79.52;101688.00;4824218;29;20398;-72
2022/08/27 07:12:36;;;;;;;2.10;2.00;;;20.30;99.90;;;20.35;80.22;101662.72;4824374;29;20145;-79
2022/08/27 07:15:07;;;;;;;2.20;2.10;;;20.20;99.90;;;20.74;79.76;101700.00;4825413;29;20156;-76
2022/08/27 07:17:36;;;;;;;;;;;20.40;99.90;;;20.76;77.07;101696.31;4825633;29;20066;-67
2022/08/27 07:20:08;;;;;;;2.42;2.33;;;20.50;99.90;;;20.98;76.50;101693.81;4825207;29;19929;-65
2022/08/27 07:22:36;;;;;;;2.20;2.10;;;20.70;99.90;;;21.10;75.27;101701.50;4825477;29;20107;-65
2022/08/27 07:25:08;;;;;;;2.33;2.22;;;20.80;99.90;;;21.15;73.65;101702.19;4825112;29;20070;-66
2022/08/27 07:27:36;;;;;;;2.53;2.42;;;20.90;99.90;;;21.20;72.29;101701.09;4825187;29;20058;-65
2022/08/27 07:30:07;;;;;;;2.00;1.90;;;21.00;99.90;;;21.22;71.60;101696.56;4824979;29;20490;-65
2022/08/27 07:32:35;;;;;;;1.90;1.80;;;21.00;99.90;;;21.34;70.83;101698.81;4825038;29;20050;-65
2022/08/27 07:35:08;;;;;;;2.10;2.00;;;21.10;99.90;;;21.47;70.30;101710.00;4824906;29;20042;-66
2022/08/27 07:37:37;;;;;;;2.10;2.00;;;21.20;99.90;;;21.37;68.46;101713.97;4824820;29;20417;-63
2022/08/27 07:40:11;;;;;;;2.63;2.53;;;21.20;99.90;;;21.55;68.66;101718.69;4825162;29;20061;-65
2022/08/27 07:45:29;;;;;;;2.05;1.95;;;21.30;99.90;;;21.66;67.79;101707.56;4824723;29;20046;-62
2022/08/27 07:47:58;;;;;;;2.33;2.22;;;21.50;99.90;;;21.78;68.19;101720.53;4824829;29;20080;-61
2022/08/27 07:50:26;;;;;;;2.45;2.35;;;21.50;99.90;;;21.87;67.62;101721.16;4824670;29;20170;-62
2022/08/27 07:52:54;;;;;;;2.10;2.00;;;21.60;99.90;;;21.87;66.75;101710.38;4824877;29;20074;-61
2022/08/27 07:55:24;;;;;;;2.10;2.00;;;21.70;99.90;;;21.90;66.69;101725.53;4824573;29;20133;-65
2022/08/27 07:57:53;;;;;;;2.42;2.33;;;21.70;99.90;;;22.07;66.55;101721.25;4825194;29;20103;-65
2022/08/27 08:00:21;;;;;;;2.58;2.47;;;21.90;99.90;;;22.04;64.83;101724.09;4824485;29;20052;-65
2022/08/27 08:02:50;;;;;;;2.35;2.25;;;21.90;99.90;;;22.15;65.29;101720.97;4824617;29;20081;-63
2022/08/27 08:05:18;;;;;;;4.32;4.05;;;22.00;99.90;;;22.32;64.41;101729.25;4824872;29;20082;-64
2022/08/27 08:07:47;;;;;;;2.20;2.10;;;22.10;99.90;;;22.39;63.36;101741.59;4824515;29;20137;-64
2022/08/27 08:10:15;;;;;;;1.95;1.85;;;22.20;99.90;;;22.47;62.75;101741.28;4824525;29;20047;-65
2022/08/27 08:12:44;;;;;;;2.00;1.90;;;22.30;99.90;;;22.51;62.24;101741.13;4824686;29;20476;-65
2022/08/27 08:15:13;;;;;;;2.30;2.20;;;22.40;99.90;;;22.54;61.71;101740.09;4824431;29;20054;-67
2022/08/27 08:17:41;;;;;;;2.33;2.22;;;22.30;99.90;;;22.63;61.86;101743.31;4823555;29;20572;-66
2022/08/27 08:20:11;;;;;;;2.20;2.10;;;22.40;99.90;;;22.68;61.09;101749.44;4824348;29;20133;-67
2022/08/27 08:22:59;;;;;;;2.33;2.22;;;22.50;99.90;;;22.73;60.53;101757.31;4824634;29;20050;-68
2022/08/27 08:25:28;;;;;;;2.13;2.03;;;22.50;99.90;;;22.82;60.50;101748.88;4824466;29;20049;-69
2022/08/27 08:28:04;;;;;;;2.20;2.10;;;22.60;99.90;;;22.91;60.78;101743.09;4824355;29;20046;-68
2022/08/27 08:30:32;;;;;;;2.00;1.90;;;22.70;99.90;;;23.01;59.99;101744.47;4824216;29;20038;-67
2022/08/27 08:33:02;;;;;;;2.10;2.00;;;22.80;99.90;;;23.05;59.64;101749.66;4824334;29;20065;-66
2022/08/27 08:35:31;;;;;;;2.05;1.95;;;22.90;99.90;;;23.18;60.22;101756.31;4824444;29;20053;-69
2022/08/27 08:38:08;;;;;;;1.90;1.80;;;23.00;99.90;;;23.07;58.50;101753.16;4824134;29;20102;-69
2022/08/27 08:40:40;;;;;;;2.38;2.28;;;23.00;99.90;;;22.93;59.19;101749.31;4824627;29;20058;-69
2022/08/27 08:43:25;;;;;;;2.38;2.28;;;22.80;99.90;;;23.05;59.11;101757.75;4824143;29;20087;-67
2022/08/27 08:45:56;;;;;;;2.22;2.13;;;22.80;99.90;;;22.98;58.75;101758.97;4823989;29;20130;-64
2022/08/27 08:48:25;;;;;;;;;;;22.80;99.90;;;22.98;58.84;101758.06;4824672;29;20478;-64
2022/08/27 08:50:59;;;;;;;2.03;1.92;;;22.80;99.90;;;23.10;59.21;101758.47;4823962;29;20016;-65
2022/08/27 08:53:41;;;;;;;2.10;2.00;;;22.90;99.90;;;23.10;59.56;101757.56;4823954;29;20081;-64
2022/08/27 08:56:15;;;;;;;2.10;2.00;;;22.90;99.90;;;23.20;59.34;101753.56;4823980;29;20133;-64
2022/08/27 08:58:51;;;;;;;2.13;2.03;;;23.00;99.90;;;22.81;59.89;101758.78;4823961;29;20103;-64
2022/08/27 09:01:21;;;;;;;2.10;2.00;;;22.60;99.90;;;22.97;59.65;101765.31;4824205;29;20058;-68
2022/08/27 09:03:54;;;;;;;2.08;1.98;;;22.70;99.90;;;22.78;60.80;101756.22;4824200;29;20145;-64
2022/08/27 09:06:34;;;;;;;36.80;7.35;;;22.60;99.90;;;23.15;60.37;101764.53;4824094;29;20099;-65
2022/08/27 09:09:27;;;;;;;2.20;2.10;;;22.80;99.90;;;23.29;59.35;101769.34;4823753;29;20413;-64
2022/08/27 09:12:01;;;;;;;2.65;2.55;;;23.00;99.90;;;22.25;59.40;101762.81;4823776;29;20078;-64
2022/08/27 09:14:37;;;;;;;2.20;2.10;;;22.30;99.90;;;22.41;60.48;101769.38;4824191;29;20081;-64
2022/08/27 09:17:07;;;;;;;2.25;2.15;;;22.10;99.90;;;22.47;59.79;101757.47;4823952;29;20129;-68
2022/08/27 09:19:39;;;;;;;2.60;2.50;;;22.30;99.90;;;22.24;60.51;101763.75;4825841;29;20054;-67
2022/08/27 09:22:19;;;;;;;2.33;2.22;;;22.00;99.90;;;22.65;62.03;101772.97;4827032;29;20051;-69
2022/08/27 09:25:05;;;;;;;2.40;2.30;;;22.20;99.90;;;22.85;60.17;101767.63;4826952;29;20082;-63
2022/08/27 09:27:36;;;;;;;2.20;2.10;;;22.50;99.90;;;22.89;58.89;101769.25;4826796;29;20102;-64
2022/08/27 09:30:10;;;;;;;2.30;2.20;;;22.60;99.90;;;22.43;59.75;101773.75;4826883;29;20076;-63
2022/08/27 09:32:39;;;;;;;2.55;2.45;;;22.20;99.90;;;22.44;59.50;101766.53;4826851;29;20084;-63
2022/08/27 09:35:11;;;;;;;2.65;2.55;;;22.20;99.90;;;22.73;59.70;101770.81;4826720;29;20046;-63
2022/08/27 09:37:44;;;;;;;2.40;2.30;;;22.40;99.90;;;22.94;59.78;101762.72;4826674;29;20089;-63
2022/08/27 09:40:19;;;;;;;2.85;2.75;;;22.60;99.90;;;22.89;56.74;101753.06;4827106;29;20042;-63
2022/08/27 09:42:53;;;;;;;2.42;2.33;;;22.70;99.90;;;22.99;56.59;101767.94;4827287;29;20054;-64
2022/08/27 09:45:25;;;;;;;2.25;2.15;;;22.70;99.90;;;23.12;56.05;101761.09;4826719;29;20103;-64
2022/08/27 09:48:04;;;;;;;2.40;2.30;;;22.90;99.90;;;23.17;55.68;101767.19;4826575;29;20139;-64
2022/08/27 09:50:38;;;;;;;2.33;2.22;;;23.00;99.90;;;23.17;54.57;101767.19;4826925;29;20074;-63
2022/08/27 09:53:19;;;;;;;2.30;2.20;;;23.00;99.90;;;22.86;54.24;101710.03;4826268;29;20055;-63
2022/08/27 09:55:53;;;;;;;2.53;2.42;;;23.00;99.90;;;23.23;54.04;101767.78;4826446;29;20058;-64
2022/08/27 09:58:25;;;;;;;2.30;2.20;;;23.10;99.90;;;23.29;53.39;101747.75;4826910;29;20054;-64
2022/08/27 10:01:03;;;;;;;2.40;2.30;;;23.10;99.90;;;23.30;53.54;101760.31;4826314;29;20459;-62
2022/08/27 10:03:33;;;;;;;2.20;2.10;;;23.10;99.90;;;23.33;53.75;101757.50;4826448;29;20065;-62
2022/08/27 10:06:01;;;;;;;2.20;2.10;;;23.10;99.90;;;23.53;54.10;101760.25;4826206;29;20050;-62
2022/08/27 10:08:38;;;;;;;2.30;2.20;;;23.30;99.90;;;23.61;53.75;101759.91;4826176;29;20390;-62
2022/08/27 10:11:14;;;;;;;2.28;2.17;;;23.40;99.90;;;23.74;54.51;101766.50;4826193;29;20057;-63
2022/08/27 10:13:51;;;;;;;2.40;2.30;;;23.60;99.90;;;23.87;53.60;101765.00;4826213;29;20133;-63
2022/08/27 10:17:05;;;;;;;1.98;1.88;;;23.70;99.90;;;23.86;52.51;101764.16;4826736;29;20046;-63
2022/08/27 10:19:52;;;;;;;2.60;2.50;;;23.70;99.90;;;23.84;52.46;101762.47;4826171;29;20073;-63
2022/08/27 10:22:40;;;;;;;2.45;2.35;;;23.60;99.90;;;23.87;52.99;101763.19;4826277;29;20054;-63
2022/08/27 10:25:23;;;;;;;2.05;1.95;;;23.70;99.90;;;23.97;52.92;101766.34;4826057;29;20111;-63
2022/08/27 10:28:06;;;;;;;7.35;3.03;;;23.70;99.90;;;23.59;51.63;101756.38;4826387;29;20107;-63
2022/08/27 10:30:56;;;;;;;2.10;2.00;;;23.60;99.90;;;23.75;52.76;101768.28;4825826;29;20520;-63
2022/08/27 10:33:36;;;;;;;2.33;2.22;;;23.50;99.90;;;23.93;53.10;101764.72;4826156;29;20565;-63
2022/08/27 10:36:24;;;;;;;2.10;2.00;;;23.70;99.90;;;24.01;52.85;101763.44;4825950;29;20081;-63
2022/08/27 10:39:07;;;;;;;2.13;2.03;;;23.70;99.90;;;24.11;52.57;101767.53;4824513;29;20054;-63
2022/08/27 10:41:42;;;;;;;2.25;2.15;;;23.90;99.90;;;24.28;52.08;101763.16;4825885;29;20051;-63